sensor_id;sensor_type;location;lat;lon;timestamp;P1;durP1;ratioP1;P2;durP2;ratioP2
44169;SDS011;29836;52.286;9.576;2024-03-02T00:00:57;14.07;;;7.20;;
44169;SDS011;29836;52.286;9.576;2024-03-02T00:03:22;13.82;;;7.35;;
44169;SDS011;29836;52.286;9.576;2024-03-02T00:05:51;12.05;;;6.93;;
44169;SDS011;29836;52.286;9.576;2024-03-02T00:08:26;13.35;;;6.93;;
44169;SDS011;29836;52.286;9.576;2024-03-02T00:10:53;12.63;;;6.97;;
44169;SDS011;29836;52.286;9.576;2024-03-02T00:13:23;11.32;;;7.00;;
44169;SDS011;29836;52.286;9.576;2024-03-02T00:18:18;9.68;;;5.78;;
44169;SDS011;29836;52.286;9.576;2024-03-02T00:20:45;11.82;;;6.28;;
44169;SDS011;29836;52.286;9.576;2024-03-02T00:23:13;12.68;;;6.47;;
44169;SDS011;29836;52.286;9.576;2024-03-02T00:25:41;9.40;;;5.63;;
44169;SDS011;29836;52.286;9.576;2024-03-02T00:28:17;13.25;;;6.50;;
44169;SDS011;29836;52.286;9.576;2024-03-02T00:30:52;11.90;;;6.78;;
44169;SDS011;29836;52.286;9.576;2024-03-02T00:33:45;12.25;;;6.65;;
44169;SDS011;29836;52.286;9.576;2024-03-02T00:36:13;11.82;;;6.03;;
44169;SDS011;29836;52.286;9.576;2024-03-02T00:38:47;11.15;;;5.85;;
44169;SDS011;29836;52.286;9.576;2024-03-02T00:43:56;11.45;;;6.25;;
44169;SDS011;29836;52.286;9.576;2024-03-02T00:46:22;11.13;;;6.30;;
44169;SDS011;29836;52.286;9.576;2024-03-02T00:48:56;11.32;;;6.03;;
44169;SDS011;29836;52.286;9.576;2024-03-02T00:51:23;10.68;;;6.38;;
44169;SDS011;29836;52.286;9.576;2024-03-02T00:53:50;11.52;;;6.95;;
44169;SDS011;29836;52.286;9.576;2024-03-02T00:56:23;11.40;;;6.28;;
44169;SDS011;29836;52.286;9.576;2024-03-02T00:58:49;9.38;;;6.00;;
44169;SDS011;29836;52.286;9.576;2024-03-02T01:01:16;10.35;;;6.40;;
44169;SDS011;29836;52.286;9.576;2024-03-02T01:03:42;10.93;;;6.78;;
44169;SDS011;29836;52.286;9.576;2024-03-02T01:06:08;11.73;;;7.18;;
44169;SDS011;29836;52.286;9.576;2024-03-02T01:08:34;13.75;;;7.15;;
44169;SDS011;29836;52.286;9.576;2024-03-02T01:11:00;12.15;;;6.57;;
44169;SDS011;29836;52.286;9.576;2024-03-02T01:13:27;11.05;;;6.63;;
44169;SDS011;29836;52.286;9.576;2024-03-02T01:15:52;15.10;;;7.43;;
44169;SDS011;29836;52.286;9.576;2024-03-02T01:18:18;12.55;;;6.50;;
44169;SDS011;29836;52.286;9.576;2024-03-02T01:20:44;12.35;;;6.75;;
44169;SDS011;29836;52.286;9.576;2024-03-02T01:23:10;13.40;;;7.55;;
44169;SDS011;29836;52.286;9.576;2024-03-02T01:25:36;12.70;;;7.03;;
44169;SDS011;29836;52.286;9.576;2024-03-02T01:28:01;10.93;;;6.40;;
44169;SDS011;29836;52.286;9.576;2024-03-02T01:30:27;11.05;;;6.38;;
44169;SDS011;29836;52.286;9.576;2024-03-02T01:32:53;10.90;;;5.97;;
44169;SDS011;29836;52.286;9.576;2024-03-02T01:35:18;11.50;;;6.68;;
44169;SDS011;29836;52.286;9.576;2024-03-02T01:37:44;10.45;;;6.28;;
44169;SDS011;29836;52.286;9.576;2024-03-02T01:40:09;13.32;;;6.80;;
44169;SDS011;29836;52.286;9.576;2024-03-02T01:42:36;13.65;;;6.32;;
44169;SDS011;29836;52.286;9.576;2024-03-02T01:45:04;10.98;;;6.47;;
44169;SDS011;29836;52.286;9.576;2024-03-02T01:47:33;11.90;;;6.78;;
44169;SDS011;29836;52.286;9.576;2024-03-02T01:49:59;10.55;;;6.40;;
44169;SDS011;29836;52.286;9.576;2024-03-02T01:52:25;13.77;;;7.43;;
44169;SDS011;29836;52.286;9.576;2024-03-02T01:54:51;10.68;;;6.20;;
44169;SDS011;29836;52.286;9.576;2024-03-02T01:57:17;10.68;;;6.75;;
44169;SDS011;29836;52.286;9.576;2024-03-02T01:59:43;13.38;;;7.80;;
44169;SDS011;29836;52.286;9.576;2024-03-02T02:02:09;12.02;;;6.78;;
44169;SDS011;29836;52.286;9.576;2024-03-02T02:04:34;14.95;;;7.65;;
44169;SDS011;29836;52.286;9.576;2024-03-02T02:07:00;13.00;;;7.70;;
44169;SDS011;29836;52.286;9.576;2024-03-02T02:09:26;16.25;;;8.07;;
44169;SDS011;29836;52.286;9.576;2024-03-02T02:11:51;13.18;;;8.00;;
44169;SDS011;29836;52.286;9.576;2024-03-02T02:14:17;14.25;;;7.78;;
44169;SDS011;29836;52.286;9.576;2024-03-02T02:16:43;14.48;;;8.25;;
44169;SDS011;29836;52.286;9.576;2024-03-02T02:19:09;21.25;;;9.27;;
44169;SDS011;29836;52.286;9.576;2024-03-02T02:21:35;18.42;;;9.25;;
44169;SDS011;29836;52.286;9.576;2024-03-02T02:24:00;17.75;;;9.85;;
44169;SDS011;29836;52.286;9.576;2024-03-02T02:26:28;18.85;;;10.45;;
44169;SDS011;29836;52.286;9.576;2024-03-02T02:28:54;19.25;;;10.88;;
44169;SDS011;29836;52.286;9.576;2024-03-02T02:31:19;20.38;;;11.18;;
44169;SDS011;29836;52.286;9.576;2024-03-02T02:33:45;20.45;;;10.82;;
44169;SDS011;29836;52.286;9.576;2024-03-02T02:36:10;21.77;;;12.07;;
44169;SDS011;29836;52.286;9.576;2024-03-02T02:38:37;20.48;;;11.13;;
44169;SDS011;29836;52.286;9.576;2024-03-02T02:41:06;22.33;;;11.32;;
44169;SDS011;29836;52.286;9.576;2024-03-02T02:43:32;24.55;;;12.82;;
44169;SDS011;29836;52.286;9.576;2024-03-02T02:45:57;22.75;;;11.27;;
44169;SDS011;29836;52.286;9.576;2024-03-02T02:48:23;23.50;;;12.68;;
44169;SDS011;29836;52.286;9.576;2024-03-02T02:50:48;26.00;;;13.48;;
44169;SDS011;29836;52.286;9.576;2024-03-02T02:53:14;27.23;;;12.50;;
44169;SDS011;29836;52.286;9.576;2024-03-02T02:55:40;25.17;;;13.52;;
44169;SDS011;29836;52.286;9.576;2024-03-02T02:58:09;25.38;;;12.75;;
44169;SDS011;29836;52.286;9.576;2024-03-02T03:00:34;25.88;;;13.00;;
44169;SDS011;29836;52.286;9.576;2024-03-02T03:03:01;26.67;;;12.98;;
44169;SDS011;29836;52.286;9.576;2024-03-02T03:05:27;26.30;;;13.77;;
44169;SDS011;29836;52.286;9.576;2024-03-02T03:07:54;27.65;;;12.85;;
44169;SDS011;29836;52.286;9.576;2024-03-02T03:10:19;26.48;;;12.60;;
44169;SDS011;29836;52.286;9.576;2024-03-02T03:12:47;29.60;;;13.38;;
44169;SDS011;29836;52.286;9.576;2024-03-02T03:15:12;25.77;;;12.75;;
44169;SDS011;29836;52.286;9.576;2024-03-02T03:17:39;28.88;;;13.13;;
44169;SDS011;29836;52.286;9.576;2024-03-02T03:20:05;25.98;;;12.45;;
44169;SDS011;29836;52.286;9.576;2024-03-02T03:22:35;21.58;;;12.02;;
44169;SDS011;29836;52.286;9.576;2024-03-02T03:25:00;25.05;;;12.73;;
44169;SDS011;29836;52.286;9.576;2024-03-02T03:27:26;23.85;;;11.82;;
44169;SDS011;29836;52.286;9.576;2024-03-02T03:29:52;22.13;;;11.45;;
44169;SDS011;29836;52.286;9.576;2024-03-02T03:32:19;22.50;;;11.43;;
44169;SDS011;29836;52.286;9.576;2024-03-02T03:34:44;24.95;;;12.88;;
44169;SDS011;29836;52.286;9.576;2024-03-02T03:37:10;25.05;;;12.55;;
44169;SDS011;29836;52.286;9.576;2024-03-02T03:39:36;22.48;;;11.63;;
44169;SDS011;29836;52.286;9.576;2024-03-02T03:42:01;22.52;;;12.30;;
44169;SDS011;29836;52.286;9.576;2024-03-02T03:44:27;26.27;;;11.35;;
44169;SDS011;29836;52.286;9.576;2024-03-02T03:46:53;26.45;;;13.43;;
44169;SDS011;29836;52.286;9.576;2024-03-02T03:49:18;27.08;;;13.30;;
44169;SDS011;29836;52.286;9.576;2024-03-02T03:51:44;24.08;;;12.70;;
44169;SDS011;29836;52.286;9.576;2024-03-02T03:54:09;26.95;;;12.93;;
44169;SDS011;29836;52.286;9.576;2024-03-02T03:56:36;28.00;;;12.43;;
44169;SDS011;29836;52.286;9.576;2024-03-02T03:59:02;25.55;;;12.75;;
44169;SDS011;29836;52.286;9.576;2024-03-02T04:01:27;29.58;;;13.90;;
44169;SDS011;29836;52.286;9.576;2024-03-02T04:03:53;28.83;;;13.82;;
44169;SDS011;29836;52.286;9.576;2024-03-02T04:06:18;29.42;;;12.85;;
44169;SDS011;29836;52.286;9.576;2024-03-02T04:08:44;29.50;;;14.25;;
44169;SDS011;29836;52.286;9.576;2024-03-02T04:11:09;29.40;;;13.75;;
44169;SDS011;29836;52.286;9.576;2024-03-02T04:13:35;28.55;;;13.57;;
44169;SDS011;29836;52.286;9.576;2024-03-02T04:16:00;27.63;;;12.32;;
44169;SDS011;29836;52.286;9.576;2024-03-02T04:18:26;29.90;;;14.40;;
44169;SDS011;29836;52.286;9.576;2024-03-02T04:20:51;23.48;;;12.65;;
44169;SDS011;29836;52.286;9.576;2024-03-02T04:23:17;28.83;;;12.80;;
44169;SDS011;29836;52.286;9.576;2024-03-02T04:25:42;26.67;;;13.27;;
44169;SDS011;29836;52.286;9.576;2024-03-02T04:28:08;25.38;;;12.50;;
44169;SDS011;29836;52.286;9.576;2024-03-02T04:30:33;26.98;;;12.57;;
44169;SDS011;29836;52.286;9.576;2024-03-02T04:32:59;25.55;;;12.65;;
44169;SDS011;29836;52.286;9.576;2024-03-02T04:35:24;27.58;;;13.48;;
44169;SDS011;29836;52.286;9.576;2024-03-02T04:37:50;25.73;;;11.80;;
44169;SDS011;29836;52.286;9.576;2024-03-02T04:40:16;23.77;;;12.38;;
44169;SDS011;29836;52.286;9.576;2024-03-02T04:42:41;29.52;;;13.15;;
44169;SDS011;29836;52.286;9.576;2024-03-02T04:45:08;26.20;;;13.10;;
44169;SDS011;29836;52.286;9.576;2024-03-02T04:47:33;29.10;;;13.20;;
44169;SDS011;29836;52.286;9.576;2024-03-02T04:49:59;30.48;;;14.27;;
44169;SDS011;29836;52.286;9.576;2024-03-02T04:52:24;22.40;;;11.32;;
44169;SDS011;29836;52.286;9.576;2024-03-02T04:54:50;29.15;;;13.48;;
44169;SDS011;29836;52.286;9.576;2024-03-02T04:57:34;29.42;;;13.27;;
44169;SDS011;29836;52.286;9.576;2024-03-02T05:00:00;25.23;;;11.98;;
44169;SDS011;29836;52.286;9.576;2024-03-02T05:02:26;30.85;;;12.30;;
44169;SDS011;29836;52.286;9.576;2024-03-02T05:04:51;23.30;;;11.48;;
44169;SDS011;29836;52.286;9.576;2024-03-02T05:07:17;27.15;;;12.32;;
44169;SDS011;29836;52.286;9.576;2024-03-02T05:09:42;26.35;;;12.45;;
44169;SDS011;29836;52.286;9.576;2024-03-02T05:12:08;26.48;;;13.50;;
44169;SDS011;29836;52.286;9.576;2024-03-02T05:14:36;27.08;;;12.18;;
44169;SDS011;29836;52.286;9.576;2024-03-02T05:17:02;28.75;;;13.07;;
44169;SDS011;29836;52.286;9.576;2024-03-02T05:19:28;26.17;;;14.15;;
44169;SDS011;29836;52.286;9.576;2024-03-02T05:21:53;35.15;;;14.30;;
44169;SDS011;29836;52.286;9.576;2024-03-02T05:24:19;28.85;;;14.13;;
44169;SDS011;29836;52.286;9.576;2024-03-02T05:26:45;30.40;;;13.63;;
44169;SDS011;29836;52.286;9.576;2024-03-02T05:29:10;26.20;;;13.80;;
44169;SDS011;29836;52.286;9.576;2024-03-02T05:31:36;30.98;;;14.23;;
44169;SDS011;29836;52.286;9.576;2024-03-02T05:34:01;32.05;;;14.52;;
44169;SDS011;29836;52.286;9.576;2024-03-02T05:36:27;31.10;;;15.27;;
44169;SDS011;29836;52.286;9.576;2024-03-02T05:38:53;34.33;;;15.77;;
44169;SDS011;29836;52.286;9.576;2024-03-02T05:41:18;33.38;;;16.88;;
44169;SDS011;29836;52.286;9.576;2024-03-02T05:43:44;33.30;;;15.38;;
44169;SDS011;29836;52.286;9.576;2024-03-02T05:46:09;30.98;;;15.25;;
44169;SDS011;29836;52.286;9.576;2024-03-02T05:48:35;38.75;;;17.50;;
44169;SDS011;29836;52.286;9.576;2024-03-02T05:51:00;36.97;;;15.77;;
44169;SDS011;29836;52.286;9.576;2024-03-02T05:53:26;33.22;;;16.08;;
44169;SDS011;29836;52.286;9.576;2024-03-02T05:55:51;35.40;;;16.63;;
44169;SDS011;29836;52.286;9.576;2024-03-02T05:58:20;33.63;;;14.95;;
44169;SDS011;29836;52.286;9.576;2024-03-02T06:00:49;35.35;;;16.70;;
44169;SDS011;29836;52.286;9.576;2024-03-02T06:03:15;38.10;;;16.95;;
44169;SDS011;29836;52.286;9.576;2024-03-02T06:05:40;36.50;;;15.98;;
44169;SDS011;29836;52.286;9.576;2024-03-02T06:08:06;32.42;;;16.30;;
44169;SDS011;29836;52.286;9.576;2024-03-02T06:10:32;35.88;;;16.67;;
44169;SDS011;29836;52.286;9.576;2024-03-02T06:12:58;31.23;;;15.73;;
44169;SDS011;29836;52.286;9.576;2024-03-02T06:15:24;36.60;;;16.63;;
44169;SDS011;29836;52.286;9.576;2024-03-02T06:17:49;31.88;;;15.73;;
44169;SDS011;29836;52.286;9.576;2024-03-02T06:20:15;39.08;;;16.88;;
44169;SDS011;29836;52.286;9.576;2024-03-02T06:22:40;37.83;;;15.60;;
44169;SDS011;29836;52.286;9.576;2024-03-02T06:25:06;34.78;;;16.10;;
44169;SDS011;29836;52.286;9.576;2024-03-02T06:27:32;29.30;;;15.52;;
44169;SDS011;29836;52.286;9.576;2024-03-02T06:29:57;39.53;;;17.83;;
44169;SDS011;29836;52.286;9.576;2024-03-02T06:32:23;33.13;;;15.88;;
44169;SDS011;29836;52.286;9.576;2024-03-02T06:34:50;33.17;;;15.30;;
44169;SDS011;29836;52.286;9.576;2024-03-02T06:37:15;32.67;;;16.63;;
44169;SDS011;29836;52.286;9.576;2024-03-02T06:39:41;35.60;;;16.08;;
44169;SDS011;29836;52.286;9.576;2024-03-02T06:42:06;34.22;;;16.15;;
44169;SDS011;29836;52.286;9.576;2024-03-02T06:44:32;35.22;;;16.33;;
44169;SDS011;29836;52.286;9.576;2024-03-02T06:46:58;36.85;;;16.50;;
44169;SDS011;29836;52.286;9.576;2024-03-02T06:49:24;35.25;;;16.70;;
44169;SDS011;29836;52.286;9.576;2024-03-02T06:51:49;31.65;;;16.25;;
44169;SDS011;29836;52.286;9.576;2024-03-02T06:54:15;32.38;;;15.50;;
44169;SDS011;29836;52.286;9.576;2024-03-02T06:56:41;33.70;;;15.60;;
44169;SDS011;29836;52.286;9.576;2024-03-02T06:59:06;34.00;;;15.68;;
44169;SDS011;29836;52.286;9.576;2024-03-02T07:01:32;35.05;;;15.93;;
44169;SDS011;29836;52.286;9.576;2024-03-02T07:03:57;32.55;;;15.30;;
44169;SDS011;29836;52.286;9.576;2024-03-02T07:06:23;33.13;;;15.35;;
44169;SDS011;29836;52.286;9.576;2024-03-02T07:08:48;35.85;;;15.95;;
44169;SDS011;29836;52.286;9.576;2024-03-02T07:11:14;31.08;;;15.00;;
44169;SDS011;29836;52.286;9.576;2024-03-02T07:13:39;26.95;;;15.48;;
44169;SDS011;29836;52.286;9.576;2024-03-02T07:16:05;28.88;;;14.75;;
44169;SDS011;29836;52.286;9.576;2024-03-02T07:18:49;28.55;;;14.10;;
44169;SDS011;29836;52.286;9.576;2024-03-02T07:21:16;30.42;;;15.40;;
44169;SDS011;29836;52.286;9.576;2024-03-02T07:23:42;35.45;;;15.70;;
44169;SDS011;29836;52.286;9.576;2024-03-02T07:26:08;32.33;;;16.02;;
44169;SDS011;29836;52.286;9.576;2024-03-02T07:28:33;30.50;;;15.40;;
44169;SDS011;29836;52.286;9.576;2024-03-02T07:30:59;29.73;;;15.18;;
44169;SDS011;29836;52.286;9.576;2024-03-02T07:33:26;27.83;;;14.60;;
44169;SDS011;29836;52.286;9.576;2024-03-02T07:35:51;30.35;;;14.77;;
44169;SDS011;29836;52.286;9.576;2024-03-02T07:38:18;28.08;;;14.68;;
44169;SDS011;29836;52.286;9.576;2024-03-02T07:40:44;28.77;;;13.90;;
44169;SDS011;29836;52.286;9.576;2024-03-02T07:43:10;24.27;;;12.93;;
44169;SDS011;29836;52.286;9.576;2024-03-02T07:45:36;30.55;;;13.15;;
44169;SDS011;29836;52.286;9.576;2024-03-02T07:48:02;24.40;;;13.88;;
44169;SDS011;29836;52.286;9.576;2024-03-02T07:50:30;24.65;;;13.38;;
44169;SDS011;29836;52.286;9.576;2024-03-02T07:52:56;26.50;;;13.27;;
44169;SDS011;29836;52.286;9.576;2024-03-02T07:55:21;22.88;;;12.98;;
44169;SDS011;29836;52.286;9.576;2024-03-02T07:57:50;24.73;;;12.68;;
44169;SDS011;29836;52.286;9.576;2024-03-02T08:00:15;27.17;;;12.93;;
44169;SDS011;29836;52.286;9.576;2024-03-02T08:02:41;24.55;;;12.23;;
44169;SDS011;29836;52.286;9.576;2024-03-02T08:05:07;22.98;;;12.02;;
44169;SDS011;29836;52.286;9.576;2024-03-02T08:07:33;24.60;;;11.63;;
44169;SDS011;29836;52.286;9.576;2024-03-02T08:09:59;20.98;;;11.70;;
44169;SDS011;29836;52.286;9.576;2024-03-02T08:12:24;20.70;;;11.13;;
44169;SDS011;29836;52.286;9.576;2024-03-02T08:14:50;24.60;;;12.13;;
44169;SDS011;29836;52.286;9.576;2024-03-02T08:17:16;22.90;;;10.50;;
44169;SDS011;29836;52.286;9.576;2024-03-02T08:19:42;20.40;;;10.35;;
44169;SDS011;29836;52.286;9.576;2024-03-02T08:22:08;15.93;;;8.40;;
44169;SDS011;29836;52.286;9.576;2024-03-02T08:24:33;16.58;;;7.90;;
44169;SDS011;29836;52.286;9.576;2024-03-02T08:26:59;15.43;;;8.98;;
44169;SDS011;29836;52.286;9.576;2024-03-02T08:29:25;19.30;;;10.48;;
44169;SDS011;29836;52.286;9.576;2024-03-02T08:31:50;18.05;;;10.00;;
44169;SDS011;29836;52.286;9.576;2024-03-02T08:34:16;19.25;;;10.43;;
44169;SDS011;29836;52.286;9.576;2024-03-02T08:36:41;19.20;;;10.70;;
44169;SDS011;29836;52.286;9.576;2024-03-02T08:39:07;17.20;;;9.80;;
44169;SDS011;29836;52.286;9.576;2024-03-02T08:41:40;14.73;;;8.52;;
44169;SDS011;29836;52.286;9.576;2024-03-02T08:44:07;15.23;;;7.70;;
44169;SDS011;29836;52.286;9.576;2024-03-02T08:46:32;14.55;;;8.07;;
44169;SDS011;29836;52.286;9.576;2024-03-02T08:48:58;15.50;;;8.02;;
44169;SDS011;29836;52.286;9.576;2024-03-02T08:51:24;12.43;;;7.47;;
44169;SDS011;29836;52.286;9.576;2024-03-02T08:53:50;12.18;;;7.28;;
44169;SDS011;29836;52.286;9.576;2024-03-02T08:56:15;11.88;;;6.68;;
44169;SDS011;29836;52.286;9.576;2024-03-02T08:58:41;12.27;;;7.13;;
44169;SDS011;29836;52.286;9.576;2024-03-02T09:01:07;13.93;;;7.00;;
44169;SDS011;29836;52.286;9.576;2024-03-02T09:03:33;13.00;;;7.22;;
44169;SDS011;29836;52.286;9.576;2024-03-02T09:05:59;12.45;;;7.18;;
44169;SDS011;29836;52.286;9.576;2024-03-02T09:08:25;14.65;;;7.63;;
44169;SDS011;29836;52.286;9.576;2024-03-02T09:10:51;13.02;;;7.13;;
44169;SDS011;29836;52.286;9.576;2024-03-02T09:13:17;13.95;;;7.65;;
44169;SDS011;29836;52.286;9.576;2024-03-02T09:15:43;16.17;;;7.90;;
44169;SDS011;29836;52.286;9.576;2024-03-02T09:18:09;17.02;;;9.85;;
44169;SDS011;29836;52.286;9.576;2024-03-02T09:20:35;19.80;;;10.95;;
44169;SDS011;29836;52.286;9.576;2024-03-02T09:23:00;18.27;;;11.00;;
44169;SDS011;29836;52.286;9.576;2024-03-02T09:25:26;20.60;;;9.57;;
44169;SDS011;29836;52.286;9.576;2024-03-02T09:27:51;16.60;;;9.68;;
44169;SDS011;29836;52.286;9.576;2024-03-02T09:30:17;15.85;;;9.07;;
44169;SDS011;29836;52.286;9.576;2024-03-02T09:32:43;19.40;;;10.65;;
44169;SDS011;29836;52.286;9.576;2024-03-02T09:35:08;18.80;;;10.30;;
44169;SDS011;29836;52.286;9.576;2024-03-02T09:37:34;18.98;;;9.82;;
44169;SDS011;29836;52.286;9.576;2024-03-02T09:40:00;13.38;;;7.25;;
44169;SDS011;29836;52.286;9.576;2024-03-02T09:42:26;14.65;;;7.28;;
44169;SDS011;29836;52.286;9.576;2024-03-02T09:44:53;15.32;;;7.28;;
44169;SDS011;29836;52.286;9.576;2024-03-02T09:47:19;12.73;;;7.25;;
44169;SDS011;29836;52.286;9.576;2024-03-02T09:49:45;15.00;;;7.03;;
44169;SDS011;29836;52.286;9.576;2024-03-02T09:52:10;12.13;;;6.55;;
44169;SDS011;29836;52.286;9.576;2024-03-02T09:54:38;11.95;;;6.82;;
44169;SDS011;29836;52.286;9.576;2024-03-02T09:57:04;13.02;;;7.40;;
44169;SDS011;29836;52.286;9.576;2024-03-02T09:59:29;14.10;;;7.65;;
44169;SDS011;29836;52.286;9.576;2024-03-02T10:01:55;12.10;;;7.15;;
44169;SDS011;29836;52.286;9.576;2024-03-02T10:04:24;11.45;;;7.30;;
44169;SDS011;29836;52.286;9.576;2024-03-02T10:06:51;11.73;;;6.97;;
44169;SDS011;29836;52.286;9.576;2024-03-02T10:09:34;14.30;;;7.80;;
44169;SDS011;29836;52.286;9.576;2024-03-02T10:12:06;13.48;;;8.02;;
44169;SDS011;29836;52.286;9.576;2024-03-02T10:14:33;11.48;;;6.60;;
44169;SDS011;29836;52.286;9.576;2024-03-02T10:17:02;13.65;;;6.97;;
44169;SDS011;29836;52.286;9.576;2024-03-02T10:19:30;11.13;;;6.82;;
44169;SDS011;29836;52.286;9.576;2024-03-02T10:22:00;10.23;;;6.43;;
44169;SDS011;29836;52.286;9.576;2024-03-02T10:24:41;13.55;;;7.55;;
44169;SDS011;29836;52.286;9.576;2024-03-02T10:27:09;12.63;;;6.28;;
44169;SDS011;29836;52.286;9.576;2024-03-02T10:29:40;10.38;;;5.65;;
44169;SDS011;29836;52.286;9.576;2024-03-02T10:32:08;9.75;;;5.78;;
44169;SDS011;29836;52.286;9.576;2024-03-02T10:34:35;10.60;;;5.80;;
44169;SDS011;29836;52.286;9.576;2024-03-02T10:37:01;10.15;;;5.70;;
44169;SDS011;29836;52.286;9.576;2024-03-02T10:39:27;8.52;;;4.85;;
44169;SDS011;29836;52.286;9.576;2024-03-02T10:41:53;9.55;;;6.18;;
44169;SDS011;29836;52.286;9.576;2024-03-02T10:44:21;10.20;;;5.30;;
44169;SDS011;29836;52.286;9.576;2024-03-02T10:46:47;15.52;;;8.20;;
44169;SDS011;29836;52.286;9.576;2024-03-02T10:49:15;14.57;;;7.45;;
44169;SDS011;29836;52.286;9.576;2024-03-02T10:51:41;14.30;;;8.75;;
44169;SDS011;29836;52.286;9.576;2024-03-02T10:54:07;12.45;;;7.35;;
44169;SDS011;29836;52.286;9.576;2024-03-02T10:56:34;15.05;;;7.63;;
44169;SDS011;29836;52.286;9.576;2024-03-02T11:01:57;12.48;;;8.05;;
44169;SDS011;29836;52.286;9.576;2024-03-02T11:04:27;13.98;;;8.13;;
44169;SDS011;29836;52.286;9.576;2024-03-02T11:06:56;11.30;;;6.70;;
44169;SDS011;29836;52.286;9.576;2024-03-02T11:09:29;13.55;;;7.43;;
44169;SDS011;29836;52.286;9.576;2024-03-02T11:12:12;13.82;;;7.57;;
44169;SDS011;29836;52.286;9.576;2024-03-02T11:14:41;12.73;;;7.10;;
44169;SDS011;29836;52.286;9.576;2024-03-02T11:17:10;14.13;;;7.05;;
44169;SDS011;29836;52.286;9.576;2024-03-02T11:19:38;10.70;;;6.47;;
44169;SDS011;29836;52.286;9.576;2024-03-02T11:22:04;10.95;;;5.78;;
44169;SDS011;29836;52.286;9.576;2024-03-02T11:24:31;10.65;;;5.45;;
44169;SDS011;29836;52.286;9.576;2024-03-02T11:27:00;8.93;;;4.60;;
44169;SDS011;29836;52.286;9.576;2024-03-02T11:32:06;12.68;;;6.68;;
44169;SDS011;29836;52.286;9.576;2024-03-02T11:34:42;12.98;;;7.18;;
44169;SDS011;29836;52.286;9.576;2024-03-02T11:37:10;14.20;;;7.60;;
44169;SDS011;29836;52.286;9.576;2024-03-02T11:39:37;13.50;;;7.72;;
44169;SDS011;29836;52.286;9.576;2024-03-02T11:42:05;16.60;;;8.18;;
44169;SDS011;29836;52.286;9.576;2024-03-02T11:44:34;13.13;;;7.18;;
44169;SDS011;29836;52.286;9.576;2024-03-02T11:47:01;12.75;;;6.97;;
44169;SDS011;29836;52.286;9.576;2024-03-02T11:49:37;15.85;;;7.57;;
44169;SDS011;29836;52.286;9.576;2024-03-02T11:52:05;12.10;;;6.85;;
44169;SDS011;29836;52.286;9.576;2024-03-02T11:54:48;11.60;;;7.00;;
44169;SDS011;29836;52.286;9.576;2024-03-02T11:57:34;13.50;;;7.28;;
44169;SDS011;29836;52.286;9.576;2024-03-02T12:00:00;13.80;;;7.13;;
44169;SDS011;29836;52.286;9.576;2024-03-02T12:02:28;16.08;;;7.68;;
44169;SDS011;29836;52.286;9.576;2024-03-02T12:04:54;12.07;;;7.05;;
44169;SDS011;29836;52.286;9.576;2024-03-02T12:07:21;13.38;;;7.13;;
44169;SDS011;29836;52.286;9.576;2024-03-02T12:09:48;13.57;;;7.25;;
44169;SDS011;29836;52.286;9.576;2024-03-02T12:12:23;13.65;;;7.32;;
44169;SDS011;29836;52.286;9.576;2024-03-02T12:14:50;11.90;;;6.47;;
44169;SDS011;29836;52.286;9.576;2024-03-02T12:17:17;11.30;;;7.07;;
44169;SDS011;29836;52.286;9.576;2024-03-02T12:19:43;9.25;;;5.32;;
44169;SDS011;29836;52.286;9.576;2024-03-02T12:22:10;11.00;;;5.60;;
44169;SDS011;29836;52.286;9.576;2024-03-02T12:24:36;10.30;;;6.03;;
44169;SDS011;29836;52.286;9.576;2024-03-02T12:27:02;10.10;;;5.45;;
44169;SDS011;29836;52.286;9.576;2024-03-02T12:29:30;11.13;;;5.45;;
44169;SDS011;29836;52.286;9.576;2024-03-02T12:31:55;10.48;;;5.65;;
44169;SDS011;29836;52.286;9.576;2024-03-02T12:34:21;9.95;;;5.40;;
44169;SDS011;29836;52.286;9.576;2024-03-02T12:36:48;11.13;;;5.60;;
44169;SDS011;29836;52.286;9.576;2024-03-02T12:39:21;10.13;;;5.65;;
44169;SDS011;29836;52.286;9.576;2024-03-02T12:41:50;10.57;;;5.82;;
44169;SDS011;29836;52.286;9.576;2024-03-02T12:44:16;14.02;;;6.25;;
44169;SDS011;29836;52.286;9.576;2024-03-02T12:46:46;12.30;;;5.95;;
44169;SDS011;29836;52.286;9.576;2024-03-02T12:49:12;10.73;;;5.30;;
44169;SDS011;29836;52.286;9.576;2024-03-02T12:51:42;10.13;;;5.00;;
44169;SDS011;29836;52.286;9.576;2024-03-02T12:54:08;9.73;;;5.07;;
44169;SDS011;29836;52.286;9.576;2024-03-02T12:56:35;10.90;;;5.78;;
44169;SDS011;29836;52.286;9.576;2024-03-02T12:59:07;11.27;;;5.55;;
44169;SDS011;29836;52.286;9.576;2024-03-02T13:01:32;11.80;;;5.95;;
44169;SDS011;29836;52.286;9.576;2024-03-02T13:03:58;11.35;;;5.80;;
44169;SDS011;29836;52.286;9.576;2024-03-02T13:06:24;9.60;;;5.38;;
44169;SDS011;29836;52.286;9.576;2024-03-02T13:08:53;12.13;;;5.65;;
44169;SDS011;29836;52.286;9.576;2024-03-02T13:11:20;9.90;;;5.22;;
44169;SDS011;29836;52.286;9.576;2024-03-02T13:13:47;11.38;;;6.38;;
44169;SDS011;29836;52.286;9.576;2024-03-02T13:16:13;9.35;;;5.40;;
44169;SDS011;29836;52.286;9.576;2024-03-02T13:18:39;10.63;;;5.18;;
44169;SDS011;29836;52.286;9.576;2024-03-02T13:21:05;10.50;;;5.35;;
44169;SDS011;29836;52.286;9.576;2024-03-02T13:23:31;10.63;;;5.55;;
44169;SDS011;29836;52.286;9.576;2024-03-02T13:25:57;9.18;;;5.32;;
44169;SDS011;29836;52.286;9.576;2024-03-02T13:28:23;12.45;;;5.28;;
44169;SDS011;29836;52.286;9.576;2024-03-02T13:30:52;10.25;;;5.70;;
44169;SDS011;29836;52.286;9.576;2024-03-02T13:33:18;12.70;;;5.85;;
44169;SDS011;29836;52.286;9.576;2024-03-02T13:35:50;9.00;;;5.22;;
44169;SDS011;29836;52.286;9.576;2024-03-02T13:38:16;9.98;;;5.70;;
44169;SDS011;29836;52.286;9.576;2024-03-02T13:40:43;11.32;;;5.63;;
44169;SDS011;29836;52.286;9.576;2024-03-02T13:43:08;10.45;;;5.13;;
44169;SDS011;29836;52.286;9.576;2024-03-02T13:45:34;8.98;;;5.03;;
44169;SDS011;29836;52.286;9.576;2024-03-02T13:48:00;9.40;;;4.88;;
44169;SDS011;29836;52.286;9.576;2024-03-02T13:50:27;10.23;;;4.70;;
44169;SDS011;29836;52.286;9.576;2024-03-02T13:52:54;8.30;;;4.80;;
44169;SDS011;29836;52.286;9.576;2024-03-02T13:55:20;8.10;;;4.68;;
44169;SDS011;29836;52.286;9.576;2024-03-02T13:57:46;9.40;;;4.57;;
44169;SDS011;29836;52.286;9.576;2024-03-02T14:00:11;7.43;;;4.22;;
44169;SDS011;29836;52.286;9.576;2024-03-02T14:02:38;9.05;;;4.28;;
44169;SDS011;29836;52.286;9.576;2024-03-02T14:05:04;7.95;;;4.45;;
44169;SDS011;29836;52.286;9.576;2024-03-02T14:07:30;8.07;;;4.63;;
44169;SDS011;29836;52.286;9.576;2024-03-02T14:09:55;6.72;;;4.40;;
44169;SDS011;29836;52.286;9.576;2024-03-02T14:12:22;7.85;;;4.60;;
44169;SDS011;29836;52.286;9.576;2024-03-02T14:14:47;9.50;;;4.53;;
44169;SDS011;29836;52.286;9.576;2024-03-02T14:17:16;9.88;;;4.22;;
44169;SDS011;29836;52.286;9.576;2024-03-02T14:19:41;8.20;;;4.38;;
44169;SDS011;29836;52.286;9.576;2024-03-02T14:22:07;6.75;;;3.97;;
44169;SDS011;29836;52.286;9.576;2024-03-02T14:24:32;7.95;;;4.13;;
44169;SDS011;29836;52.286;9.576;2024-03-02T14:26:58;9.02;;;4.57;;
44169;SDS011;29836;52.286;9.576;2024-03-02T14:29:26;8.88;;;4.18;;
44169;SDS011;29836;52.286;9.576;2024-03-02T14:31:52;8.13;;;4.53;;
44169;SDS011;29836;52.286;9.576;2024-03-02T14:34:18;6.70;;;4.13;;
44169;SDS011;29836;52.286;9.576;2024-03-02T14:36:43;7.70;;;4.50;;
44169;SDS011;29836;52.286;9.576;2024-03-02T14:39:09;8.65;;;4.35;;